ADDS METAR Data INFO
IDs: Format: Raw Decoded Include TAF

Data at: 0216 UTC 18 Jan 2018

KELM 180153Z 26004KT 10SM CLR M15/M17 A3019 RMK AO2 SLP244 T11501167
KELM 180053Z 21006KT 10SM CLR M10/M14 A3021 RMK AO2 SLP248 T11001144
KELM 172353Z 23004KT 10SM CLR M11/M15 A3023 RMK AO2 SLP255 T11111150 11050 21117 57010
KELM 172253Z 30007KT 10SM CLR M09/M14 A3024 RMK AO2 SLP257 T10891139
KELM 172153Z 28006KT 10SM CLR M07/M14 A3025 RMK AO2 SLP259 T10671139
KELM 172053Z 28009KT 10SM FEW039 M06/M13 A3026 RMK AO2 SLP262 T10561133 56013
KELM 171953Z AUTO 30006KT 10SM OVC039 M06/M13 A3027 RMK AO2 SLP264 T10561133
KELM 171853Z 30008KT 10SM CLR M06/M14 A3028 RMK AO2 SLP267 T10561139
KELM 171753Z 22006KT 10SM SCT034 M07/M13 A3030 RMK AO2 SLP276 T10721128 11072 21156 58022
KELM 171653Z 28005KT 10SM SCT033 M08/M14 A3034 RMK AO2 SLP288 T10781139
KELM 171553Z VRB06KT 10SM CLR M09/M14 A3037 RMK AO2 SLP301 T10891139
KELM 171453Z 24007KT 10SM CLR M10/M14 A3037 RMK AO2 SLP299 T11001144 50001
KELM 171353Z 22004KT 10SM CLR M12/M13 A3037 RMK AO2 SLP301 T11171133
KELM 171253Z 25003KT 10SM FEW100 M11/M15 A3037 RMK AO2 SLP302 T11111150
KELM 171153Z 25008KT 10SM OVC035 M09/M14 A3036 RMK AO2 SNB13E22 SLP298 P0000 60000 T10941139 11033 21094 51018
KELM 171144Z 25006KT 10SM SCT020 OVC035 M09/M13 A3037 RMK AO2 SNB13E22 P0000 T10891133
KELM 171053Z 26011KT 10SM OVC022 M08/M12 A3035 RMK AO2 SNE0954 SLP292 P0000 T10781117
KELM 170953Z AUTO 28008KT 8SM -SN OVC022 M07/M11 A3033 RMK AO2 SNB10 SLP286 P0000 T10671106
KELM 170929Z AUTO 26009KT 8SM -SN OVC018 M07/M09 A3033 RMK AO2 SNB10 P0000 T10671094
KELM 170853Z AUTO 25012KT 8SM OVC013 M06/M07 A3031 RMK AO2 SNE37 SLP278 P0000 60000 T10561072 53005
KELM 170827Z AUTO 30008KT 4SM -SN BR FEW005 OVC013 M04/M04 A3030 RMK AO2 P0000 T10391044
KELM 170818Z AUTO 25004KT 3SM -SN BR OVC014 M03/M05 A3030 RMK AO2 P0000 T10331050
KELM 170806Z AUTO 22003KT 2 1/2SM -SN BR BKN014 BKN040 OVC080 M04/M05 A3030 RMK AO2 P0000 T10441050
KELM 170753Z AUTO 25003KT 2 1/2SM -SN BR SCT018 BKN037 OVC080 M04/M04 A3029 RMK AO2 SLP272 P0000 T10441044
KELM 170653Z AUTO 00000KT 2SM -SN BR OVC030 M04/M04 A3029 RMK AO2 SLP270 P0000 T10391044
KELM 170645Z AUTO 00000KT 2SM -SN BR OVC030 M04/M04 A3029 RMK AO2 P0000 T10391044
KELM 170616Z AUTO 00000KT 2SM -SN BR OVC025 M03/M04 A3029 RMK AO2 P0000 T10331039
KELM 170553Z AUTO 00000KT 1 1/2SM -SN BR SCT014 BKN020 OVC026 M03/M04 A3029 RMK AO2 SLP271 P0000 60000 T10331039 11022 21039 56005
KELM 170549Z AUTO 00000KT 1 1/2SM -SN BR SCT014 OVC020 M03/M04 A3029 RMK AO2 P0000
KELM 170535Z AUTO 00000KT 1 1/2SM -SN BR BKN014 BKN020 OVC070 M04/M05 A3030 RMK AO2 P0000 T10391050
KELM 170525Z AUTO 28003KT 1 3/4SM -SN BR SCT010 BKN020 OVC075 M04/M05 A3030 RMK AO2 P0000 T10391050
KELM 170509Z AUTO 00000KT 1 3/4SM -SN BR OVC080 M04/M04 A3030 RMK AO2 P0000 T10391044
KELM 170453Z AUTO 00000KT 2SM -SN BR OVC080 M04/M04 A3030 RMK AO2 SLP274 P0000 T10391039 410221083
KELM 170353Z AUTO 03003KT 2 1/2SM -SN BR OVC080 M03/M03 A3031 RMK AO2 SLP277 P0000 T10281033
KELM 170253Z 07003KT 2SM -SN BR OVC060 M03/M04 A3032 RMK AO2 SLP282 P0000 60000 T10281039 58001
KELM 170245Z 06004KT 1 3/4SM -SN BR OVC060 M03/M03 A3032 RMK AO2 P0000 T10281033
KELM 170213Z 01003KT 2SM -SN BR FEW012 SCT033 OVC065 M03/M03 A3033 RMK AO2 P0000 T10281033
KELM 170153Z 02003KT 1 3/4SM -SN BR SCT012 OVC032 M03/M03 A3033 RMK AO2 SLP286 P0000 T10281033
KELM 170125Z 04004KT 1 3/4SM -SN BR OVC036 M03/M03 A3032 RMK AO2 P0000 T10281033
KELM 170103Z AUTO 02004KT 2SM -SN BR OVC048 M03/M03 A3033 RMK AO2 P0000 T10281033
KELM 170053Z AUTO 03004KT 1 3/4SM -SN BR OVC046 M03/M03 A3032 RMK AO2 SLP283 P0000 T10281033
KELM 170032Z AUTO 04003KT 1 3/4SM -SN BR FEW015 OVC038 M03/M03 A3032 RMK AO2 P0000 T10281033
KELM 170022Z AUTO 03003KT 2SM -SN BR SCT012 OVC040 M03/M03 A3033 RMK AO2 P0000 T10281033
KELM 162353Z AUTO 01003KT 1 3/4SM -SN BR FEW011 OVC043 M03/M03 A3033 RMK AO2 SLP285 P0000 60000 T10281033 11022 21028 55000
KELM 162253Z AUTO 01003KT 1 1/2SM -SN BR OVC032 M03/M03 A3033 RMK AO2 SLP285 P0000 T10281033
KELM 162153Z AUTO 06004KT 1SM -SN BR OVC040 M02/M03 A3033 RMK AO2 SLP284 P0000 T10221033 RVRNO
KELM 162144Z AUTO 07004KT 1SM -SN BR OVC032 M02/M03 A3033 RMK AO2 P0000 T10221033 RVRNO
KELM 162053Z AUTO 08003KT 3/4SM -SN BR BKN026 OVC037 M02/M04 A3033 RMK AO2 SLP285 P0000 60000 T10221039 56001 RVRNO
KELM 162023Z AUTO 03004KT 1SM -SN BR BKN026 OVC049 M02/M04 A3033 RMK AO2 P0000 T10221044 RVRNO
KELM 162005Z AUTO 03004KT 1 1/4SM -SN BR FEW017 BKN030 OVC049 M02/M04 A3033 RMK AO2 P0000 T10221044
KELM 161953Z AUTO 02004KT 3/4SM -SN SCT017 BKN028 OVC045 M02/M05 A3033 RMK AO2 SLP286 P0000 T10221050 RVRNO
KELM 161948Z AUTO 02003KT 1SM -SN BR SCT017 BKN028 OVC065 M02/M04 A3033 RMK AO2 P0000 RVRNO
KELM 161902Z 00000KT 2 1/2SM -SN BR FEW041 OVC070 M03/M05 A3033 RMK AO2 P0000 T10281050
KELM 161852Z 00000KT 1 3/4SM -SN BR SCT047 SCT055 OVC070 M03/M05 A3033 RMK AO2 SLP284 P0000 T10281050
KELM 161851Z 00000KT 1 3/4SM -SN BR SCT049 OVC065 M03/M05 A3033 RMK AO2 P0000
KELM 161810Z 00000KT 3SM -SN BR FEW035 BKN049 OVC070 M03/M05 A3034 RMK AO2 P0000 T10281050
KELM 161753Z 00000KT 1 3/4SM -SN BKN039 OVC050 M03/M06 A3033 RMK AO2 SNB28 SLP286 P0000 60000 T10281056 11028 21083 58019
KELM 161653Z 00000KT 9SM FEW034 OVC075 M03/M06 A3037 RMK AO2 SLP299 T10331061
KELM 161553Z 00000KT 5SM BR OVC075 M05/M06 A3039 RMK AO2 SLP305 T10501056
KELM 161453Z 00000KT 6SM BR FEW120 M06/M07 A3039 RMK AO2 SLP306 60000 T10611072 51010